Time;durP1;ratioP1;P1;durP2;ratioP2;P2;SDS_P1;SDS_P2;PMS_P1;PMS_P2;Temp;Humidity;BMP_temperature;BMP_pressure;BME280_temperature;BME280_humidity;BME280_pressure;Samples;Min_cycle;Max_cycle;Signal;HPM_P1;HPM_P2
2023/05/09 00:01:46;;;;;;;23.13;16.17;;;;;;;-140.66;100.00;55571.53;5107127;28;20027;-69
2023/05/09 00:04:32;;;;;;;25.13;15.20;;;;;;;-140.66;100.00;55571.53;5103539;28;20082;-71
2023/05/09 00:07:18;;;;;;;24.73;15.05;;;;;;;-140.66;100.00;55571.53;5096383;28;20051;-71
2023/05/09 00:10:05;;;;;;;25.92;14.95;;;;;;;-140.66;100.00;55571.53;5096994;28;20071;-71
2023/05/09 00:12:51;;;;;;;20.92;14.93;;;;;;;-140.66;100.00;55571.53;5096467;28;20088;-71
2023/05/09 00:15:36;;;;;;;20.48;14.57;;;;;;;-140.66;100.00;55571.53;5097092;28;20028;-70
2023/05/09 00:18:22;;;;;;;21.30;15.48;;;;;;;-140.66;100.00;55571.53;5097040;28;20020;-71
2023/05/09 00:21:09;;;;;;;23.55;15.55;;;;;;;-140.66;100.00;55571.53;5087906;28;20051;-73
2023/05/09 00:23:56;;;;;;;29.05;15.68;;;;;;;-140.66;100.00;55571.53;5101678;28;20520;-69
2023/05/09 00:26:41;;;;;;;23.45;14.35;;;;;;;-140.66;100.00;55571.53;5095930;28;20425;-70
2023/05/09 00:29:27;;;;;;;22.60;14.70;;;;;;;-140.66;100.00;55571.53;5082069;28;20380;-70
2023/05/09 00:32:13;;;;;;;22.33;14.50;;;;;;;-140.66;100.00;55571.53;5096340;28;20452;-70
2023/05/09 00:34:59;;;;;;;23.73;15.00;;;;;;;-140.66;100.00;55571.53;5096100;28;20412;-70
2023/05/09 00:37:44;;;;;;;22.48;15.30;;;;;;;-140.66;100.00;55571.53;5095783;28;20035;-70
2023/05/09 00:40:30;;;;;;;25.75;16.02;;;;;;;-140.66;100.00;55571.53;5095446;28;20028;-70
2023/05/09 00:43:16;;;;;;;22.92;15.18;;;;;;;-140.66;100.00;55571.53;5082547;28;20035;-71
2023/05/09 00:46:03;;;;;;;23.67;14.65;;;;;;;-140.66;100.00;55571.53;5095242;28;20356;-71
2023/05/09 00:48:49;;;;;;;21.10;14.00;;;;;;;-140.66;100.00;55571.53;5082057;28;20467;-71
2023/05/09 00:51:39;;;;;;;22.20;13.25;;;;;;;-140.66;100.00;55571.53;5096367;28;20028;-70
2023/05/09 00:54:25;;;;;;;23.05;13.23;;;;;;;-140.66;100.00;55571.53;5095432;28;20024;-70
2023/05/09 00:57:11;;;;;;;18.05;13.18;;;;;;;-140.66;100.00;55571.53;5094952;28;20466;-70
2023/05/09 00:59:56;;;;;;;22.30;13.77;;;;;;;-140.66;100.00;55571.53;5095981;28;20043;-69
2023/05/09 01:02:46;;;;;;;19.02;12.75;;;;;;;-140.66;100.00;55571.53;5093928;28;20099;-70
2023/05/09 01:05:57;;;;;;;20.48;13.30;;;;;;;-140.66;100.00;55571.53;5095957;28;20101;-71
2023/05/09 01:08:57;;;;;;;20.80;13.38;;;;;;;-140.66;100.00;55571.53;5080770;28;20027;-71
2023/05/09 01:11:55;;;;;;;27.00;13.43;;;;;;;-140.66;100.00;55571.53;5080386;28;20023;-71
2023/05/09 01:15:03;;;;;;;30.17;14.10;;;;;;;-140.66;100.00;55571.53;5096431;28;20028;-70
2023/05/09 01:17:56;;;;;;;23.55;14.23;;;;;;;-140.66;100.00;55571.53;5095775;28;20024;-70
2023/05/09 01:20:46;;;;;;;26.85;13.63;;;;;;;-140.66;100.00;55571.53;5081467;28;20024;-70
2023/05/09 01:23:44;;;;;;;21.70;13.52;;;;;;;-140.66;100.00;55571.53;5080099;28;20028;-70
2023/05/09 01:26:42;;;;;;;24.25;13.07;;;;;;;-140.66;100.00;55571.53;5096019;28;20162;-71
2023/05/09 01:29:45;;;;;;;22.95;13.73;;;;;;;-140.66;100.00;55571.53;5079272;28;20044;-71
2023/05/09 01:32:35;;;;;;;27.63;14.10;;;;;;;-140.66;100.00;55571.53;5096295;28;20555;-70
2023/05/09 01:35:25;;;;;;;24.00;13.27;;;;;;;-140.66;100.00;55571.53;5094906;28;20043;-71
2023/05/09 01:38:14;;;;;;;28.15;13.52;;;;;;;-140.66;100.00;55571.53;5094868;28;20127;-70
2023/05/09 01:41:04;;;;;;;24.70;12.93;;;;;;;-140.66;100.00;55571.53;5094770;28;20074;-70
2023/05/09 01:43:51;;;;;;;21.10;11.75;;;;;;;-140.66;100.00;55571.53;5095387;28;20031;-70
2023/05/09 01:46:36;;;;;;;21.20;12.32;;;;;;;-140.66;100.00;55571.53;5080760;28;20103;-70
2023/05/09 01:49:23;;;;;;;16.40;11.73;;;;;;;-140.66;100.00;55571.53;5081315;28;20096;-70
2023/05/09 01:52:13;;;;;;;17.60;11.82;;;;;;;-140.66;100.00;55571.53;5095054;28;20074;-71
2023/05/09 01:55:00;;;;;;;19.30;11.57;;;;;;;-140.66;100.00;55571.53;5094539;28;20116;-70
2023/05/09 01:57:46;;;;;;;19.38;11.63;;;;;;;-140.66;100.00;55571.53;5081735;28;20346;-70
2023/05/09 02:00:33;;;;;;;16.52;11.20;;;;;;;-140.66;100.00;55571.53;5094826;28;20063;-71
2023/05/09 02:03:21;;;;;;;17.95;12.13;;;;;;;-140.66;100.00;55571.53;5094868;28;20020;-70
2023/05/09 02:06:08;;;;;;;18.02;11.30;;;;;;;-140.66;100.00;55571.53;5094025;28;20020;-70
2023/05/09 02:08:55;;;;;;;14.10;10.50;;;;;;;-140.66;100.00;55571.53;5094832;28;20344;-69
2023/05/09 02:11:41;;;;;;;19.45;11.05;;;;;;;-140.66;100.00;55571.53;5093592;28;20055;-71
2023/05/09 02:14:26;;;;;;;16.88;10.27;;;;;;;-140.66;100.00;55571.53;5081184;28;20115;-70
2023/05/09 02:17:15;;;;;;;15.38;10.30;;;;;;;-140.66;100.00;55571.53;5079396;28;20056;-70
2023/05/09 02:20:01;;;;;;;14.70;9.95;;;;;;;-140.66;100.00;55571.53;5094066;28;20055;-70
2023/05/09 02:22:47;;;;;;;13.10;9.70;;;;;;;-140.66;100.00;55571.53;5094660;28;20044;-69
2023/05/09 02:25:33;;;;;;;13.30;10.07;;;;;;;-140.66;100.00;55571.53;5094262;28;20055;-70
2023/05/09 02:28:21;;;;;;;12.98;9.02;;;;;;;-140.66;100.00;55571.53;5094943;28;20055;-70
2023/05/09 02:31:11;;;;;;;14.68;9.20;;;;;;;-140.66;100.00;55571.53;5094429;28;20046;-70
2023/05/09 02:33:58;;;;;;;15.57;9.55;;;;;;;-140.66;100.00;55571.53;5094162;28;20054;-70
2023/05/09 02:36:44;;;;;;;15.25;9.13;;;;;;;-140.66;100.00;55571.53;5080151;28;20024;-70
2023/05/09 02:39:30;;;;;;;14.40;9.38;;;;;;;-140.66;100.00;55571.53;5094889;28;20039;-70
2023/05/09 02:42:24;;;;;;;11.43;8.55;;;;;;;-140.66;100.00;55571.53;5109376;28;20004;-70
2023/05/09 02:45:10;;;;;;;14.05;8.80;;;;;;;-140.66;100.00;55571.53;5101719;28;20128;-71
2023/05/09 02:47:55;;;;;;;16.23;9.05;;;;;;;-140.66;100.00;55571.53;5095643;28;20110;-70
2023/05/09 02:50:44;;;;;;;12.95;8.95;;;;;;;-140.66;100.00;55571.53;5080545;28;20028;-70
2023/05/09 02:53:30;;;;;;;15.43;9.32;;;;;;;-140.66;100.00;55571.53;5080175;28;20035;-70
2023/05/09 02:56:16;;;;;;;14.88;8.48;;;;;;;-140.66;100.00;55571.53;5080450;28;20032;-70
2023/05/09 02:59:01;;;;;;;16.75;9.52;;;;;;;-140.66;100.00;55571.53;5094500;28;20031;-70
2023/05/09 03:01:47;;;;;;;17.33;9.80;;;;;;;-140.66;100.00;55571.53;5092277;28;20093;-70
2023/05/09 03:04:33;;;;;;;18.30;9.07;;;;;;;-140.66;100.00;55571.53;5099316;28;20092;-70
2023/05/09 03:07:19;;;;;;;15.30;8.60;;;;;;;-140.66;100.00;55571.53;5097220;28;20016;-70
2023/05/09 03:10:05;;;;;;;15.02;9.02;;;;;;;-140.66;100.00;55571.53;5095860;28;20028;-70
2023/05/09 03:12:51;;;;;;;16.95;9.10;;;;;;;-140.66;100.00;55571.53;5094895;28;20089;-70
2023/05/09 03:15:36;;;;;;;13.02;8.75;;;;;;;-140.66;100.00;55571.53;5095729;28;20097;-71
2023/05/09 03:18:22;;;;;;;13.60;8.38;;;;;;;-140.66;100.00;55571.53;5095852;28;20028;-69
2023/05/09 03:21:08;;;;;;;13.70;9.02;;;;;;;-140.66;100.00;55571.53;5079110;28;20121;-70
2023/05/09 03:23:54;;;;;;;13.63;9.30;;;;;;;-140.66;100.00;55571.53;5093759;28;20496;-70
2023/05/09 03:26:39;;;;;;;13.95;9.07;;;;;;;-140.66;100.00;55571.53;5096859;28;20024;-71
2023/05/09 03:29:25;;;;;;;12.57;8.70;;;;;;;-140.66;100.00;55571.53;5083837;28;20526;-70
2023/05/09 03:32:11;;;;;;;12.88;8.85;;;;;;;-140.66;100.00;55571.53;5099701;27;20058;-71
2023/05/09 03:34:56;;;;;;;14.45;9.02;;;;;;;-140.66;100.00;55571.53;5099647;27;20493;-70
2023/05/09 03:37:42;;;;;;;12.90;8.10;;;;;;;-140.66;100.00;55571.53;5098802;27;20034;-72
2023/05/09 03:40:28;;;;;;;13.93;8.27;;;;;;;-140.66;100.00;55571.53;5099289;27;20039;-71
2023/05/09 03:43:14;;;;;;;16.15;8.35;;;;;;;-140.66;100.00;55571.53;5098921;27;20028;-70
2023/05/09 03:46:00;;;;;;;12.02;8.27;;;;;;;-140.66;100.00;55571.53;5083312;28;20028;-70
2023/05/09 03:48:46;;;;;;;15.68;8.70;;;;;;;-140.66;100.00;55571.53;5097250;28;20040;-71
2023/05/09 03:51:31;;;;;;;12.15;8.00;;;;;;;-140.66;100.00;55571.53;5096932;28;20024;-71
2023/05/09 03:54:17;;;;;;;12.52;8.30;;;;;;;-140.66;100.00;55571.53;5083912;28;20024;-71
2023/05/09 03:57:03;;;;;;;15.10;8.38;;;;;;;-140.66;100.00;55571.53;5097184;28;20456;-71
2023/05/09 03:59:49;;;;;;;11.95;8.40;;;;;;;-140.66;100.00;55571.53;5099036;28;20028;-71
2023/05/09 04:02:34;;;;;;;11.27;8.10;;;;;;;-140.66;100.00;55571.53;5099091;27;20028;-71
2023/05/09 04:05:20;;;;;;;14.75;8.43;;;;;;;-140.66;100.00;55571.53;5096891;28;20027;-71
2023/05/09 04:08:06;;;;;;;13.90;8.65;;;;;;;-140.66;100.00;55571.53;5097030;28;20093;-71
2023/05/09 04:10:52;;;;;;;14.57;8.27;;;;;;;-140.66;100.00;55571.53;5096273;28;20028;-71
2023/05/09 04:13:38;;;;;;;13.02;8.57;;;;;;;-140.66;100.00;55571.53;5096441;28;20027;-70
2023/05/09 04:16:24;;;;;;;13.93;8.52;;;;;;;-140.66;100.00;55571.53;5082208;28;20020;-70
2023/05/09 04:19:09;;;;;;;15.27;8.50;;;;;;;-140.66;100.00;55571.53;5098582;27;20028;-72
2023/05/09 04:21:55;;;;;;;10.65;7.78;;;;;;;-140.66;100.00;55571.53;5082134;28;20028;-70
2023/05/09 04:24:41;;;;;;;10.73;8.43;;;;;;;-140.66;100.00;55571.53;5096986;28;20028;-69
2023/05/09 04:27:27;;;;;;;12.63;7.78;;;;;;;-140.66;100.00;55571.53;5096519;28;20039;-70
2023/05/09 04:30:13;;;;;;;14.15;7.88;;;;;;;-140.66;100.00;55571.53;5096605;28;20101;-69
2023/05/09 04:32:58;;;;;;;12.38;7.63;;;;;;;-140.66;100.00;55571.53;5096238;28;20157;-70
2023/05/09 04:35:44;;;;;;;16.45;7.65;;;;;;;-140.66;100.00;55571.53;5095207;28;20082;-70
2023/05/09 04:38:30;;;;;;;15.70;7.85;;;;;;;-140.66;100.00;55571.53;5096883;28;20032;-69
2023/05/09 04:41:16;;;;;;;16.40;7.80;;;;;;;-140.66;100.00;55571.53;5097316;27;20467;-69
2023/05/09 04:44:02;;;;;;;17.13;8.73;;;;;;;-140.66;100.00;55571.53;5097932;27;20325;-70
2023/05/09 04:46:49;;;;;;;18.08;8.27;;;;;;;-140.66;100.00;55571.53;5096408;28;20024;-70
2023/05/09 04:49:35;;;;;;;20.52;8.40;;;;;;;-140.66;100.00;55571.53;5095661;28;20036;-70
2023/05/09 04:52:21;;;;;;;15.35;8.63;;;;;;;-140.66;100.00;55571.53;5096333;28;20036;-70
2023/05/09 04:55:07;;;;;;;15.80;8.70;;;;;;;-140.66;100.00;55571.53;5095879;28;20046;-70
2023/05/09 04:57:52;;;;;;;18.75;8.23;;;;;;;-140.66;100.00;55571.53;5094662;28;20024;-70
2023/05/09 05:00:38;;;;;;;15.50;8.13;;;;;;;-140.66;100.00;55571.53;5096087;28;20189;-69
2023/05/09 05:03:24;;;;;;;15.70;7.43;;;;;;;-140.66;100.00;55571.53;5096071;28;20034;-70
2023/05/09 05:06:09;;;;;;;15.30;8.32;;;;;;;-140.66;100.00;55571.53;5096897;27;20142;-70
2023/05/09 05:08:55;;;;;;;13.73;7.53;;;;;;;-140.66;100.00;55571.53;5095689;28;20089;-70
2023/05/09 05:11:41;;;;;;;14.23;7.35;;;;;;;-140.66;100.00;55571.53;5095136;28;20111;-70
2023/05/09 05:14:26;;;;;;;12.02;7.80;;;;;;;-140.66;100.00;55571.53;5094975;28;20097;-70
2023/05/09 05:17:12;;;;;;;15.07;7.60;;;;;;;-140.66;100.00;55571.53;5096539;28;20090;-69
2023/05/09 05:19:58;;;;;;;20.83;7.95;;;;;;;-140.66;100.00;55571.53;5082092;28;20039;-70
2023/05/09 05:22:44;;;;;;;19.13;8.02;;;;;;;-140.66;100.00;55571.53;5095293;28;20066;-70
2023/05/09 05:25:30;;;;;;;20.98;7.85;;;;;;;-140.66;100.00;55571.53;5081897;28;20032;-71
2023/05/09 05:28:15;;;;;;;19.42;7.95;;;;;;;-140.66;100.00;55571.53;5095418;28;20051;-71
2023/05/09 05:31:01;;;;;;;19.42;8.23;;;;;;;-140.66;100.00;55571.53;5097147;27;20060;-70
2023/05/09 05:33:47;;;;;;;19.92;8.40;;;;;;;-140.66;100.00;55571.53;5096688;27;20446;-70
2023/05/09 05:36:33;;;;;;;23.10;8.88;;;;;;;-140.66;100.00;55571.53;5095470;28;20054;-70
2023/05/09 05:39:18;;;;;;;20.33;7.57;;;;;;;-140.66;100.00;55571.53;5097131;28;20036;-70
2023/05/09 05:42:04;;;;;;;16.02;7.00;;;;;;;-140.66;100.00;55571.53;5096664;27;20360;-68
2023/05/09 05:44:50;;;;;;;18.10;7.35;;;;;;;-140.66;100.00;55571.53;5095265;28;20020;-69
2023/05/09 05:47:36;;;;;;;14.23;6.82;;;;;;;-140.66;100.00;55571.53;5096269;27;20048;-70
2023/05/09 05:50:21;;;;;;;17.38;6.90;;;;;;;-140.66;100.00;55571.53;5081258;28;20102;-70
2023/05/09 05:53:07;;;;;;;17.33;7.07;;;;;;;-140.66;100.00;55571.53;5094766;28;20078;-70
2023/05/09 05:55:53;;;;;;;14.20;7.15;;;;;;;-140.66;100.00;55571.53;5095279;28;20028;-72
2023/05/09 05:58:39;;;;;;;13.75;7.03;;;;;;;-140.66;100.00;55571.53;5080395;28;20032;-70
2023/05/09 06:01:25;;;;;;;16.95;8.45;;;;;;;-140.66;100.00;55571.53;5094573;28;20031;-73
2023/05/09 06:04:10;;;;;;;18.77;9.40;;;;;;;-140.66;100.00;55571.53;5096086;28;20066;-71
2023/05/09 06:06:56;;;;;;;17.42;7.60;;;;;;;-140.66;100.00;55571.53;5096384;28;20052;-71
2023/05/09 06:09:42;;;;;;;30.55;8.32;;;;;;;-140.66;100.00;55571.53;5093834;28;20030;-70
2023/05/09 06:12:28;;;;;;;22.02;8.88;;;;;;;-140.66;100.00;55571.53;5095305;28;20073;-72
2023/05/09 06:15:14;;;;;;;22.13;9.18;;;;;;;-140.66;100.00;55571.53;5094021;28;20039;-71
2023/05/09 06:18:00;;;;;;;20.15;8.80;;;;;;;-140.66;100.00;55571.53;5080339;28;20032;-71
2023/05/09 06:20:46;;;;;;;14.18;8.00;;;;;;;-140.66;100.00;55571.53;5093676;28;20035;-72
2023/05/09 06:23:32;;;;;;;17.60;8.23;;;;;;;-140.66;100.00;55571.53;5074051;28;20021;-71
2023/05/09 06:26:18;;;;;;;19.02;8.18;;;;;;;-140.66;100.00;55571.53;5095750;28;20119;-72
2023/05/09 06:29:05;;;;;;;20.85;8.43;;;;;;;-140.66;100.00;55571.53;5093471;28;20059;-70
2023/05/09 06:31:50;;;;;;;20.83;9.02;;;;;;;-140.66;100.00;55571.53;5080554;28;20109;-69
2023/05/09 06:34:36;;;;;;;22.17;8.88;;;;;;;-140.66;100.00;55571.53;5080529;28;20233;-69
2023/05/09 06:37:22;;;;;;;15.93;8.07;;;;;;;-140.66;100.00;55571.53;5078845;28;20093;-71
2023/05/09 06:40:08;;;;;;;19.27;7.75;;;;;;;-140.66;100.00;55571.53;5079314;28;20074;-71
2023/05/09 06:42:54;;;;;;;14.63;7.80;;;;;;;-140.66;100.00;55571.53;5095602;28;20032;-71
2023/05/09 06:45:40;;;;;;;19.23;8.60;;;;;;;-140.66;100.00;55571.53;5094556;28;20046;-71
2023/05/09 06:48:26;;;;;;;14.23;7.72;;;;;;;-140.66;100.00;55571.53;5094977;28;20417;-71
2023/05/09 06:51:11;;;;;;;18.25;8.32;;;;;;;-140.66;100.00;55571.53;5080227;28;20032;-74
2023/05/09 06:53:57;;;;;;;13.90;8.05;;;;;;;-140.66;100.00;55571.53;5095491;28;20436;-73
2023/05/09 06:56:43;;;;;;;17.45;7.75;;;;;;;-140.66;100.00;55571.53;5095085;28;20043;-70
2023/05/09 06:59:29;;;;;;;17.10;7.97;;;;;;;-140.66;100.00;55571.53;5094472;28;20527;-72
2023/05/09 07:02:15;;;;;;;10.00;7.07;;;;;;;-140.66;100.00;55571.53;5097737;28;20035;-71
2023/05/09 07:05:00;;;;;;;14.55;7.00;;;;;;;-140.66;100.00;55571.53;5098847;28;20036;-71
2023/05/09 07:07:46;;;;;;;10.07;6.78;;;;;;;-140.66;100.00;55571.53;5098387;28;20028;-71
2023/05/09 07:10:32;;;;;;;8.75;6.68;;;;;;;-140.66;100.00;55571.53;5098460;28;20063;-71
2023/05/09 07:13:18;;;;;;;12.70;6.75;;;;;;;-140.66;100.00;55571.53;5070076;28;20020;-72
2023/05/09 07:16:04;;;;;;;14.00;7.00;;;;;;;-140.66;100.00;55571.53;5098028;28;20036;-71
2023/05/09 07:18:49;;;;;;;13.00;6.65;;;;;;;-140.66;100.00;55571.53;5096753;28;20028;-72
2023/05/09 07:21:35;;;;;;;9.38;6.13;;;;;;;-140.66;100.00;55571.53;5083943;28;20039;-71
2023/05/09 07:24:21;;;;;;;8.48;6.55;;;;;;;-140.66;100.00;55571.53;5097504;28;20020;-72
2023/05/09 07:27:06;;;;;;;11.80;6.88;;;;;;;-140.66;100.00;55571.53;5097390;28;20421;-71
2023/05/09 07:29:52;;;;;;;11.57;6.32;;;;;;;-140.66;100.00;55571.53;5096947;28;20467;-72
2023/05/09 07:32:38;;;;;;;13.95;7.25;;;;;;;-140.66;100.00;55571.53;5083010;28;20028;-71
2023/05/09 07:35:24;;;;;;;12.13;6.63;;;;;;;-140.66;100.00;55571.53;5097774;28;20110;-71
2023/05/09 07:38:10;;;;;;;14.38;6.93;;;;;;;-140.66;100.00;55571.53;5099061;27;20454;-71
2023/05/09 07:40:55;;;;;;;12.70;6.78;;;;;;;-140.66;100.00;55571.53;5097533;28;20448;-71
2023/05/09 07:43:41;;;;;;;9.30;6.10;;;;;;;-140.66;100.00;55571.53;5082636;28;20111;-71
2023/05/09 07:46:27;;;;;;;7.60;6.18;;;;;;;-140.66;100.00;55571.53;5098005;28;20112;-70
2023/05/09 07:49:12;;;;;;;9.63;6.90;;;;;;;-140.66;100.00;55571.53;5098523;27;20020;-70
2023/05/09 07:51:58;;;;;;;12.68;7.10;;;;;;;-140.66;100.00;55571.53;5082058;28;20525;-72
2023/05/09 07:54:44;;;;;;;15.38;7.15;;;;;;;-140.66;100.00;55571.53;5096482;28;20023;-71
2023/05/09 07:57:30;;;;;;;13.07;6.65;;;;;;;-140.66;100.00;55571.53;5096490;28;20074;-71
2023/05/09 08:00:17;;;;;;;9.77;6.13;;;;;;;-140.66;100.00;55571.53;5096597;28;20024;-71
2023/05/09 08:03:03;;;;;;;11.65;6.45;;;;;;;-140.66;100.00;55571.53;5097380;28;20046;-72
2023/05/09 08:05:54;;;;;;;14.75;6.43;;;;;;;-140.66;100.00;55571.53;5082598;28;20024;-71
2023/05/09 08:08:40;;;;;;;10.30;6.43;;;;;;;-140.66;100.00;55571.53;5093321;28;20031;-70
2023/05/09 08:11:26;;;;;;;8.88;6.28;;;;;;;-140.66;100.00;55571.53;5082599;28;20028;-71
2023/05/09 08:14:12;;;;;;;10.35;6.43;;;;;;;-140.66;100.00;55571.53;5097218;28;20101;-71
2023/05/09 08:16:58;;;;;;;11.10;6.85;;;;;;;-140.66;100.00;55571.53;5097624;28;20440;-72
2023/05/09 08:19:44;;;;;;;9.63;6.53;;;;;;;-140.66;100.00;55571.53;5103103;28;20110;-75
2023/05/09 08:22:29;;;;;;;10.43;6.53;;;;;;;-140.66;100.00;55571.53;5082394;28;20032;-73
2023/05/09 08:25:17;;;;;;;8.50;5.60;;;;;;;-140.66;100.00;55571.53;5096118;28;20020;-74
2023/05/09 08:28:03;;;;;;;9.30;6.30;;;;;;;-140.66;100.00;55571.53;5081578;28;20137;-72
2023/05/09 08:30:50;;;;;;;9.52;6.28;;;;;;;-140.66;100.00;55571.53;5095974;28;20051;-72
2023/05/09 08:33:36;;;;;;;8.93;5.90;;;;;;;-140.66;100.00;55571.53;5095661;28;20024;-72
2023/05/09 08:36:21;;;;;;;10.80;6.32;;;;;;;-140.66;100.00;55571.53;5095661;28;20035;-72
2023/05/09 08:39:08;;;;;;;10.90;6.15;;;;;;;-140.66;100.00;55571.53;5097362;28;20028;-71
2023/05/09 08:41:58;;;;;;;8.75;6.32;;;;;;;-140.66;100.00;55571.53;5082659;28;20530;-71
2023/05/09 08:44:44;;;;;;;7.40;6.03;;;;;;;-140.66;100.00;55571.53;5081875;28;20024;-71
2023/05/09 08:47:34;;;;;;;8.70;6.60;;;;;;;-140.66;100.00;55571.53;5095911;28;20345;-71
2023/05/09 08:50:21;;;;;;;10.25;6.30;;;;;;;-140.66;100.00;55571.53;5096522;28;20149;-71
2023/05/09 08:53:07;;;;;;;8.88;6.63;;;;;;;-140.66;100.00;55571.53;5096023;28;20070;-71
2023/05/09 08:55:53;;;;;;;8.25;5.95;;;;;;;-140.66;100.00;55571.53;5095988;28;20387;-71
2023/05/09 08:58:39;;;;;;;7.15;5.53;;;;;;;-140.66;100.00;55571.53;5080061;28;20116;-71
2023/05/09 09:01:26;;;;;;;9.05;5.80;;;;;;;-140.66;100.00;55571.53;5095681;28;20363;-71
2023/05/09 09:04:12;;;;;;;6.97;5.40;;;;;;;-140.66;100.00;55571.53;5098390;27;20441;-72
2023/05/09 09:07:02;;;;;;;9.25;5.57;;;;;;;-140.66;100.00;55571.53;5096480;28;20024;-71
2023/05/09 09:09:49;;;;;;;8.38;4.90;;;;;;;-140.66;100.00;55571.53;5068275;28;20028;-72
2023/05/09 09:12:36;;;;;;;7.47;4.68;;;;;;;-140.66;100.00;55571.53;5082087;28;20024;-72
2023/05/09 09:15:25;;;;;;;10.32;5.25;;;;;;;-140.66;100.00;55571.53;5083165;28;20102;-72
2023/05/09 09:18:23;;;;;;;9.98;5.22;;;;;;;-140.66;100.00;55571.53;5096683;28;20330;-71
2023/05/09 09:21:21;;;;;;;6.15;4.95;;;;;;;-140.66;100.00;55571.53;5096143;28;20047;-71
2023/05/09 09:24:07;;;;;;;9.30;5.15;;;;;;;-140.66;100.00;55571.53;5080637;28;20024;-72
2023/05/09 09:26:55;;;;;;;8.85;5.40;;;;;;;-140.66;100.00;55571.53;5081008;28;20345;-72
2023/05/09 09:29:41;;;;;;;12.23;5.32;;;;;;;-140.66;100.00;55571.53;5095370;28;20431;-71
2023/05/09 09:32:32;;;;;;;5.70;5.07;;;;;;;-140.66;100.00;55571.53;5095014;28;20028;-71
2023/05/09 09:35:19;;;;;;;13.85;5.18;;;;;;;-140.66;100.00;55571.53;5095213;28;20441;-70
2023/05/09 09:38:05;;;;;;;9.00;5.00;;;;;;;-140.66;100.00;55571.53;5081579;28;20448;-71
2023/05/09 09:40:50;;;;;;;11.73;5.28;;;;;;;-140.66;100.00;55571.53;5095436;28;20028;-71
2023/05/09 09:43:36;;;;;;;13.00;5.28;;;;;;;-140.66;100.00;55571.53;5094686;28;20042;-71
2023/05/09 09:46:23;;;;;;;8.50;4.97;;;;;;;-140.66;100.00;55571.53;5094820;28;20056;-70
2023/05/09 09:49:10;;;;;;;16.80;4.50;;;;;;;-140.66;100.00;55571.53;5081183;28;20024;-72
2023/05/09 09:51:57;;;;;;;10.43;5.50;;;;;;;-140.66;100.00;55571.53;5081082;28;20099;-70
2023/05/09 09:54:43;;;;;;;13.07;4.45;;;;;;;-140.66;100.00;55571.53;5095310;28;20024;-71
2023/05/09 09:57:36;;;;;;;5.65;4.10;;;;;;;-140.66;100.00;55571.53;5080643;28;20447;-71
2023/05/09 10:00:26;;;;;;;8.65;4.03;;;;;;;-140.66;100.00;55571.53;5095390;28;20027;-71
2023/05/09 10:03:16;;;;;;;8.18;4.25;;;;;;;-140.66;100.00;55571.53;5094858;28;20050;-71
2023/05/09 10:06:02;;;;;;;7.45;4.45;;;;;;;-140.66;100.00;55571.53;5094884;28;20030;-70
2023/05/09 10:08:48;;;;;;;6.75;4.15;;;;;;;-140.66;100.00;55571.53;5094418;28;20027;-72
2023/05/09 10:11:33;;;;;;;11.60;4.90;;;;;;;-140.66;100.00;55571.53;5094935;28;20028;-71
2023/05/09 10:14:24;;;;;;;8.73;4.25;;;;;;;-140.66;100.00;55571.53;5081772;28;20444;-72
2023/05/09 10:17:13;;;;;;;10.50;4.28;;;;;;;-140.66;100.00;55571.53;5095090;28;20039;-71
2023/05/09 10:20:03;;;;;;;10.48;4.30;;;;;;;-140.66;100.00;55571.53;5093885;28;20412;-72
2023/05/09 10:22:52;;;;;;;17.88;4.70;;;;;;;-140.66;100.00;55571.53;5095195;28;20451;-72
2023/05/09 10:25:45;;;;;;;9.95;4.43;;;;;;;-140.66;100.00;55571.53;5095018;28;20028;-71
2023/05/09 10:28:33;;;;;;;8.20;4.75;;;;;;;-140.66;100.00;55571.53;5095833;28;20052;-71
2023/05/09 10:31:27;;;;;;;8.60;4.22;;;;;;;-140.66;100.00;55571.53;5080239;28;20031;-71
2023/05/09 10:34:14;;;;;;;8.38;4.72;;;;;;;-140.66;100.00;55571.53;5081560;28;20034;-72
2023/05/09 10:37:01;;;;;;;14.35;4.82;;;;;;;-140.66;100.00;55571.53;5100279;28;20028;-71
2023/05/09 10:39:51;;;;;;;14.88;5.68;;;;;;;-140.66;100.00;55571.53;5099013;28;20035;-71
2023/05/09 10:42:37;;;;;;;12.80;4.88;;;;;;;-140.66;100.00;55571.53;5116327;28;20024;-71
2023/05/09 10:45:23;;;;;;;7.05;4.07;;;;;;;-140.66;100.00;55571.53;5088595;28;20032;-71
2023/05/09 10:48:10;;;;;;;4.47;3.67;;;;;;;-140.66;100.00;55571.53;5099254;28;20035;-71
2023/05/09 10:50:56;;;;;;;8.35;3.83;;;;;;;-140.66;100.00;55571.53;5098648;28;20035;-72
2023/05/09 10:53:44;;;;;;;6.00;3.88;;;;;;;-140.66;100.00;55571.53;5084115;28;20066;-71
2023/05/09 10:56:32;;;;;;;7.15;3.90;;;;;;;-140.66;100.00;55571.53;5084375;28;20036;-72
2023/05/09 10:59:34;;;;;;;7.25;4.18;;;;;;;-140.66;100.00;55571.53;5098926;28;20063;-71
2023/05/09 11:02:20;;;;;;;10.95;4.78;;;;;;;-140.66;100.00;55571.53;5105725;28;20032;-70
2023/05/09 11:05:16;;;;;;;7.22;4.40;;;;;;;-140.66;100.00;55571.53;5108763;28;20031;-70
2023/05/09 11:08:24;;;;;;;8.27;4.68;;;;;;;-140.66;100.00;55571.53;5103051;28;20420;-71
2023/05/09 11:11:23;;;;;;;8.40;4.68;;;;;;;-140.66;100.00;55571.53;5097523;28;20028;-72
2023/05/09 11:14:09;;;;;;;10.98;3.97;;;;;;;-140.66;100.00;55571.53;5098449;28;20553;-71
2023/05/09 11:17:03;;;;;;;7.80;4.30;;;;;;;-140.66;100.00;55571.53;5099410;27;20472;-71
2023/05/09 11:19:48;;;;;;;12.40;5.30;;;;;;;-140.66;100.00;55571.53;5083242;28;20031;-71
2023/05/09 11:22:42;;;;;;;10.07;4.90;;;;;;;-140.66;100.00;55571.53;5097993;28;20028;-71
2023/05/09 11:25:28;;;;;;;10.48;5.05;;;;;;;-140.66;100.00;55571.53;5097913;28;20064;-71
2023/05/09 11:28:31;;;;;;;9.07;4.50;;;;;;;-140.66;100.00;55571.53;5082659;28;20433;-70
2023/05/09 11:31:18;;;;;;;8.32;4.65;;;;;;;-140.66;100.00;55571.53;5097312;28;20028;-70
2023/05/09 11:34:05;;;;;;;12.15;5.47;;;;;;;-140.66;100.00;55571.53;5084201;28;20322;-71
2023/05/09 11:37:08;;;;;;;8.82;4.40;;;;;;;-140.66;100.00;55571.53;5083643;28;20383;-70
2023/05/09 11:40:04;;;;;;;8.50;4.50;;;;;;;-140.66;100.00;55571.53;5097998;28;20031;-71
2023/05/09 11:42:54;;;;;;;6.88;4.15;;;;;;;-140.66;100.00;55571.53;5083523;28;20031;-71
2023/05/09 11:45:40;;;;;;;8.55;4.28;;;;;;;-140.66;100.00;55571.53;5097215;28;20085;-71
2023/05/09 11:48:26;;;;;;;7.93;3.95;;;;;;;-140.66;100.00;55571.53;5096754;28;20504;-69
2023/05/09 11:51:17;;;;;;;6.40;4.32;;;;;;;-140.66;100.00;55571.53;5083836;28;20505;-70
2023/05/09 11:54:04;;;;;;;12.85;4.38;;;;;;;-140.66;100.00;55571.53;5097907;28;20039;-71
2023/05/09 11:56:50;;;;;;;14.32;4.32;;;;;;;-140.66;100.00;55571.53;5097220;28;20028;-71
2023/05/09 11:59:37;;;;;;;11.43;4.28;;;;;;;-140.66;100.00;55571.53;5095657;27;20408;-72
2023/05/09 12:02:23;;;;;;;6.63;4.13;;;;;;;-140.66;100.00;55571.53;5098478;28;20051;-71
2023/05/09 12:05:10;;;;;;;6.13;3.97;;;;;;;-140.66;100.00;55571.53;5118232;28;20042;-71
2023/05/09 12:08:02;;;;;;;7.25;4.00;;;;;;;-140.66;100.00;55571.53;5118149;27;20058;-72
2023/05/09 12:10:48;;;;;;;5.95;3.75;;;;;;;-140.66;100.00;55571.53;5117921;27;20058;-71
2023/05/09 12:13:34;;;;;;;13.93;4.68;;;;;;;-140.66;100.00;55571.53;5115668;28;20027;-72
2023/05/09 12:16:20;;;;;;;7.95;3.97;;;;;;;-140.66;100.00;55571.53;5117940;27;20036;-70
2023/05/09 12:19:08;;;;;;;7.05;4.47;;;;;;;-140.66;100.00;55571.53;5117895;27;20073;-72
2023/05/09 12:21:58;;;;;;;14.82;4.53;;;;;;;-140.66;100.00;55571.53;5117133;28;20020;-70
2023/05/09 12:24:44;;;;;;;10.82;4.20;;;;;;;-140.66;100.00;55571.53;5117973;27;20031;-72
2023/05/09 12:27:31;;;;;;;9.73;4.50;;;;;;;-140.66;100.00;55571.53;5102750;27;20024;-71
2023/05/09 12:30:17;;;;;;;5.07;4.00;;;;;;;-140.66;100.00;55571.53;5117908;27;20027;-71
2023/05/09 12:33:04;;;;;;;9.50;4.00;;;;;;;-140.66;100.00;55571.53;5117580;27;20038;-71